sensor_id;sensor_type;location;lat;lon;timestamp;temperature;humidity
1025;DHT22;501;48.214;11.350;2023-05-10T00:01:28;15.10;75.20
1025;DHT22;501;48.214;11.350;2023-05-10T00:03:54;15.00;75.00
1025;DHT22;501;48.214;11.350;2023-05-10T00:06:19;15.00;75.80
1025;DHT22;501;48.214;11.350;2023-05-10T00:08:45;15.00;75.90
1025;DHT22;501;48.214;11.350;2023-05-10T00:11:11;15.00;75.70
1025;DHT22;501;48.214;11.350;2023-05-10T00:13:36;15.00;76.00
1025;DHT22;501;48.214;11.350;2023-05-10T00:16:02;15.00;77.30
1025;DHT22;501;48.214;11.350;2023-05-10T00:18:28;15.00;78.10
1025;DHT22;501;48.214;11.350;2023-05-10T00:20:53;15.00;77.90
1025;DHT22;501;48.214;11.350;2023-05-10T00:23:19;15.00;78.00
1025;DHT22;501;48.214;11.350;2023-05-10T00:25:44;15.00;77.00
1025;DHT22;501;48.214;11.350;2023-05-10T00:28:10;15.00;76.30
1025;DHT22;501;48.214;11.350;2023-05-10T00:30:35;15.00;76.80
1025;DHT22;501;48.214;11.350;2023-05-10T00:33:01;15.00;77.60
1025;DHT22;501;48.214;11.350;2023-05-10T00:35:27;15.00;77.20
1025;DHT22;501;48.214;11.350;2023-05-10T00:37:52;15.00;76.50
1025;DHT22;501;48.214;11.350;2023-05-10T00:40:18;15.00;75.20
1025;DHT22;501;48.214;11.350;2023-05-10T00:42:44;15.00;74.60
1025;DHT22;501;48.214;11.350;2023-05-10T00:45:09;15.00;73.40
1025;DHT22;501;48.214;11.350;2023-05-10T00:47:35;14.90;73.70
1025;DHT22;501;48.214;11.350;2023-05-10T00:50:01;14.90;74.30
1025;DHT22;501;48.214;11.350;2023-05-10T00:52:28;14.90;75.30
1025;DHT22;501;48.214;11.350;2023-05-10T00:54:54;14.90;74.90
1025;DHT22;501;48.214;11.350;2023-05-10T00:57:21;14.80;74.90
1025;DHT22;501;48.214;11.350;2023-05-10T00:59:48;14.80;75.40
1025;DHT22;501;48.214;11.350;2023-05-10T01:02:13;14.80;76.20
1025;DHT22;501;48.214;11.350;2023-05-10T01:04:39;14.80;77.60
1025;DHT22;501;48.214;11.350;2023-05-10T01:07:06;14.80;75.60
1025;DHT22;501;48.214;11.350;2023-05-10T01:09:35;14.70;76.50
1025;DHT22;501;48.214;11.350;2023-05-10T01:12:01;14.70;76.00
1025;DHT22;501;48.214;11.350;2023-05-10T01:14:27;14.70;76.00
1025;DHT22;501;48.214;11.350;2023-05-10T01:16:53;14.60;74.70
1025;DHT22;501;48.214;11.350;2023-05-10T01:19:24;14.60;76.00
1025;DHT22;501;48.214;11.350;2023-05-10T01:22:13;14.60;77.20
1025;DHT22;501;48.214;11.350;2023-05-10T01:25:09;14.60;76.30
1025;DHT22;501;48.214;11.350;2023-05-10T01:33:32;14.60;76.00
1025;DHT22;501;48.214;11.350;2023-05-10T01:36:08;14.60;77.00
1025;DHT22;501;48.214;11.350;2023-05-10T01:38:58;14.60;77.60
1025;DHT22;501;48.214;11.350;2023-05-10T01:41:42;14.60;77.30
1025;DHT22;501;48.214;11.350;2023-05-10T01:44:29;14.60;75.80
1025;DHT22;501;48.214;11.350;2023-05-10T01:47:17;14.60;75.60
1025;DHT22;501;48.214;11.350;2023-05-10T01:49:52;14.50;75.90
1025;DHT22;501;48.214;11.350;2023-05-10T01:52:20;14.50;77.30
1025;DHT22;501;48.214;11.350;2023-05-10T01:55:06;14.50;75.90
1025;DHT22;501;48.214;11.350;2023-05-10T01:57:39;14.50;75.70
1025;DHT22;501;48.214;11.350;2023-05-10T02:00:08;14.50;75.80
1025;DHT22;501;48.214;11.350;2023-05-10T02:02:40;14.50;76.60
1025;DHT22;501;48.214;11.350;2023-05-10T02:05:08;14.50;78.20
1025;DHT22;501;48.214;11.350;2023-05-10T02:07:35;14.50;77.00
1025;DHT22;501;48.214;11.350;2023-05-10T02:10:04;14.50;77.30
1025;DHT22;501;48.214;11.350;2023-05-10T02:12:32;14.50;77.40
1025;DHT22;501;48.214;11.350;2023-05-10T02:15:02;14.40;74.50
1025;DHT22;501;48.214;11.350;2023-05-10T02:17:29;14.40;75.80
1025;DHT22;501;48.214;11.350;2023-05-10T02:19:56;14.40;77.90
1025;DHT22;501;48.214;11.350;2023-05-10T02:22:24;14.40;77.80
1025;DHT22;501;48.214;11.350;2023-05-10T02:24:51;14.30;75.00
1025;DHT22;501;48.214;11.350;2023-05-10T02:27:17;14.30;76.40
1025;DHT22;501;48.214;11.350;2023-05-10T02:29:44;14.30;78.30
1025;DHT22;501;48.214;11.350;2023-05-10T02:32:12;14.30;78.30
1025;DHT22;501;48.214;11.350;2023-05-10T02:34:38;14.30;79.40
1025;DHT22;501;48.214;11.350;2023-05-10T02:37:04;14.30;78.70
1025;DHT22;501;48.214;11.350;2023-05-10T02:39:31;14.30;78.30
1025;DHT22;501;48.214;11.350;2023-05-10T02:41:58;14.30;77.50
1025;DHT22;501;48.214;11.350;2023-05-10T02:44:26;14.30;77.70
1025;DHT22;501;48.214;11.350;2023-05-10T02:46:52;14.30;78.20
1025;DHT22;501;48.214;11.350;2023-05-10T02:49:21;14.20;78.20
1025;DHT22;501;48.214;11.350;2023-05-10T02:51:50;14.20;78.20
1025;DHT22;501;48.214;11.350;2023-05-10T02:54:20;14.20;78.30
1025;DHT22;501;48.214;11.350;2023-05-10T02:56:59;14.20;79.90
1025;DHT22;501;48.214;11.350;2023-05-10T02:59:26;14.20;79.80
1025;DHT22;501;48.214;11.350;2023-05-10T03:01:52;14.20;80.30
1025;DHT22;501;48.214;11.350;2023-05-10T03:04:18;14.20;79.90
1025;DHT22;501;48.214;11.350;2023-05-10T03:06:44;14.20;79.50
1025;DHT22;501;48.214;11.350;2023-05-10T03:09:10;14.20;80.20
1025;DHT22;501;48.214;11.350;2023-05-10T03:12:00;14.20;79.30
1025;DHT22;501;48.214;11.350;2023-05-10T03:17:40;14.10;80.70
1025;DHT22;501;48.214;11.350;2023-05-10T03:20:10;14.10;81.30
1025;DHT22;501;48.214;11.350;2023-05-10T03:22:51;14.10;81.40
1025;DHT22;501;48.214;11.350;2023-05-10T03:25:20;14.10;81.90
1025;DHT22;501;48.214;11.350;2023-05-10T03:27:47;14.10;82.20
1025;DHT22;501;48.214;11.350;2023-05-10T03:30:13;14.10;82.60
1025;DHT22;501;48.214;11.350;2023-05-10T03:32:40;14.10;81.10
1025;DHT22;501;48.214;11.350;2023-05-10T03:35:10;14.10;81.70
1025;DHT22;501;48.214;11.350;2023-05-10T03:37:37;14.10;82.40
1025;DHT22;501;48.214;11.350;2023-05-10T03:40:03;14.10;82.90
1025;DHT22;501;48.214;11.350;2023-05-10T03:42:28;14.10;83.80
1025;DHT22;501;48.214;11.350;2023-05-10T03:44:55;14.10;83.30
1025;DHT22;501;48.214;11.350;2023-05-10T03:47:20;14.10;83.40
1025;DHT22;501;48.214;11.350;2023-05-10T03:49:46;14.10;83.80
1025;DHT22;501;48.214;11.350;2023-05-10T03:52:11;14.10;84.30
1025;DHT22;501;48.214;11.350;2023-05-10T03:54:37;14.20;83.40
1025;DHT22;501;48.214;11.350;2023-05-10T03:57:03;14.10;82.50
1025;DHT22;501;48.214;11.350;2023-05-10T03:59:29;14.10;82.20
1025;DHT22;501;48.214;11.350;2023-05-10T04:01:55;14.10;82.90
1025;DHT22;501;48.214;11.350;2023-05-10T04:04:21;14.10;83.70
1025;DHT22;501;48.214;11.350;2023-05-10T04:06:47;14.10;85.30
1025;DHT22;501;48.214;11.350;2023-05-10T04:09:13;14.10;84.30
1025;DHT22;501;48.214;11.350;2023-05-10T04:11:39;14.10;85.20
1025;DHT22;501;48.214;11.350;2023-05-10T04:14:04;14.10;86.20
1025;DHT22;501;48.214;11.350;2023-05-10T04:16:30;14.10;86.30
1025;DHT22;501;48.214;11.350;2023-05-10T04:18:56;14.10;85.30
1025;DHT22;501;48.214;11.350;2023-05-10T04:21:22;14.10;84.90
1025;DHT22;501;48.214;11.350;2023-05-10T04:23:47;14.10;83.90
1025;DHT22;501;48.214;11.350;2023-05-10T04:26:13;14.10;84.60
1025;DHT22;501;48.214;11.350;2023-05-10T04:28:39;14.10;85.20
1025;DHT22;501;48.214;11.350;2023-05-10T04:31:06;14.10;86.10
1025;DHT22;501;48.214;11.350;2023-05-10T04:33:32;14.10;84.60
1025;DHT22;501;48.214;11.350;2023-05-10T04:35:58;14.00;83.70
1025;DHT22;501;48.214;11.350;2023-05-10T04:38:24;14.00;84.50
1025;DHT22;501;48.214;11.350;2023-05-10T04:40:50;13.90;83.30
1025;DHT22;501;48.214;11.350;2023-05-10T04:43:16;13.90;81.80
1025;DHT22;501;48.214;11.350;2023-05-10T04:45:41;13.80;82.90
1025;DHT22;501;48.214;11.350;2023-05-10T04:48:07;13.80;84.80
1025;DHT22;501;48.214;11.350;2023-05-10T04:50:32;13.80;86.80
1025;DHT22;501;48.214;11.350;2023-05-10T04:52:58;13.70;87.60
1025;DHT22;501;48.214;11.350;2023-05-10T04:55:24;13.70;87.20
1025;DHT22;501;48.214;11.350;2023-05-10T04:57:50;13.70;87.60
1025;DHT22;501;48.214;11.350;2023-05-10T05:00:16;13.60;87.10
1025;DHT22;501;48.214;11.350;2023-05-10T05:02:45;13.60;88.90
1025;DHT22;501;48.214;11.350;2023-05-10T05:05:12;13.60;85.70
1025;DHT22;501;48.214;11.350;2023-05-10T05:07:37;13.60;87.00
1025;DHT22;501;48.214;11.350;2023-05-10T05:10:07;13.50;81.50
1025;DHT22;501;48.214;11.350;2023-05-10T05:12:33;13.40;80.90
1025;DHT22;501;48.214;11.350;2023-05-10T05:14:58;13.20;81.40
1025;DHT22;501;48.214;11.350;2023-05-10T05:17:24;13.10;85.00
1025;DHT22;501;48.214;11.350;2023-05-10T05:19:50;13.00;86.10
1025;DHT22;501;48.214;11.350;2023-05-10T05:22:15;12.90;89.00
1025;DHT22;501;48.214;11.350;2023-05-10T05:24:41;12.80;91.40
1025;DHT22;501;48.214;11.350;2023-05-10T05:27:07;12.80;92.80
1025;DHT22;501;48.214;11.350;2023-05-10T05:29:33;12.80;94.40
1025;DHT22;501;48.214;11.350;2023-05-10T05:31:58;12.90;94.70
1025;DHT22;501;48.214;11.350;2023-05-10T05:34:24;12.90;94.70
1025;DHT22;501;48.214;11.350;2023-05-10T05:36:50;12.90;96.50
1025;DHT22;501;48.214;11.350;2023-05-10T05:39:16;13.00;96.80
1025;DHT22;501;48.214;11.350;2023-05-10T05:41:41;13.00;97.10
1025;DHT22;501;48.214;11.350;2023-05-10T05:44:07;13.10;97.60
1025;DHT22;501;48.214;11.350;2023-05-10T05:46:33;13.20;96.10
1025;DHT22;501;48.214;11.350;2023-05-10T05:48:59;13.30;94.70
1025;DHT22;501;48.214;11.350;2023-05-10T05:51:24;13.40;94.50
1025;DHT22;501;48.214;11.350;2023-05-10T05:53:50;13.50;93.00
1025;DHT22;501;48.214;11.350;2023-05-10T05:56:16;13.50;90.70
1025;DHT22;501;48.214;11.350;2023-05-10T05:58:52;13.50;87.40
1025;DHT22;501;48.214;11.350;2023-05-10T06:01:18;13.60;88.10
1025;DHT22;501;48.214;11.350;2023-05-10T06:03:43;13.60;86.80
1025;DHT22;501;48.214;11.350;2023-05-10T06:06:09;13.60;86.40
1025;DHT22;501;48.214;11.350;2023-05-10T06:08:35;13.60;87.60
1025;DHT22;501;48.214;11.350;2023-05-10T06:11:01;13.60;85.70
1025;DHT22;501;48.214;11.350;2023-05-10T06:13:26;13.70;87.10
1025;DHT22;501;48.214;11.350;2023-05-10T06:15:58;13.70;84.50
1025;DHT22;501;48.214;11.350;2023-05-10T06:18:23;13.70;85.80
1025;DHT22;501;48.214;11.350;2023-05-10T06:20:50;13.70;85.80
1025;DHT22;501;48.214;11.350;2023-05-10T06:23:15;13.80;86.10
1025;DHT22;501;48.214;11.350;2023-05-10T06:25:41;13.80;82.10
1025;DHT22;501;48.214;11.350;2023-05-10T06:28:07;13.80;82.10
1025;DHT22;501;48.214;11.350;2023-05-10T06:30:32;13.80;82.70
1025;DHT22;501;48.214;11.350;2023-05-10T06:32:58;13.80;81.00
1025;DHT22;501;48.214;11.350;2023-05-10T06:35:24;13.80;82.30
1025;DHT22;501;48.214;11.350;2023-05-10T06:37:50;13.90;83.90
1025;DHT22;501;48.214;11.350;2023-05-10T06:40:16;13.90;81.40
1025;DHT22;501;48.214;11.350;2023-05-10T06:42:42;13.90;81.40
1025;DHT22;501;48.214;11.350;2023-05-10T06:45:08;14.00;83.80
1025;DHT22;501;48.214;11.350;2023-05-10T06:47:34;14.00;80.00
1025;DHT22;501;48.214;11.350;2023-05-10T06:50:00;14.10;78.10
1025;DHT22;501;48.214;11.350;2023-05-10T06:52:25;14.10;77.70
1025;DHT22;501;48.214;11.350;2023-05-10T06:54:51;14.20;75.80
1025;DHT22;501;48.214;11.350;2023-05-10T06:57:17;14.20;78.20
1025;DHT22;501;48.214;11.350;2023-05-10T06:59:43;14.30;76.10
1025;DHT22;501;48.214;11.350;2023-05-10T07:02:08;14.40;74.30
1025;DHT22;501;48.214;11.350;2023-05-10T07:04:34;14.50;72.50
1025;DHT22;501;48.214;11.350;2023-05-10T07:07:00;14.60;74.50
1025;DHT22;501;48.214;11.350;2023-05-10T07:09:25;14.60;73.40
1025;DHT22;501;48.214;11.350;2023-05-10T07:11:51;14.80;69.90
1025;DHT22;501;48.214;11.350;2023-05-10T07:14:17;14.80;69.40
1025;DHT22;501;48.214;11.350;2023-05-10T07:16:43;15.00;71.70
1025;DHT22;501;48.214;11.350;2023-05-10T07:19:09;15.10;68.50
1025;DHT22;501;48.214;11.350;2023-05-10T07:21:36;15.10;68.10
1025;DHT22;501;48.214;11.350;2023-05-10T07:24:01;15.10;62.70
1025;DHT22;501;48.214;11.350;2023-05-10T07:26:27;15.10;60.50
1025;DHT22;501;48.214;11.350;2023-05-10T07:28:53;15.10;61.20
1025;DHT22;501;48.214;11.350;2023-05-10T07:31:18;15.10;63.30
1025;DHT22;501;48.214;11.350;2023-05-10T07:33:44;15.10;63.60
1025;DHT22;501;48.214;11.350;2023-05-10T07:36:09;15.10;60.70
1025;DHT22;501;48.214;11.350;2023-05-10T07:38:35;15.20;62.30
1025;DHT22;501;48.214;11.350;2023-05-10T07:41:01;15.20;61.10
1025;DHT22;501;48.214;11.350;2023-05-10T07:43:26;15.30;62.40
1025;DHT22;501;48.214;11.350;2023-05-10T07:45:52;15.30;58.10
1025;DHT22;501;48.214;11.350;2023-05-10T07:48:18;15.30;58.90
1025;DHT22;501;48.214;11.350;2023-05-10T07:50:43;15.30;57.80
1025;DHT22;501;48.214;11.350;2023-05-10T07:53:09;15.30;55.40
1025;DHT22;501;48.214;11.350;2023-05-10T07:55:35;15.30;54.80
1025;DHT22;501;48.214;11.350;2023-05-10T07:58:00;15.30;56.10
1025;DHT22;501;48.214;11.350;2023-05-10T08:00:26;15.30;54.80
1025;DHT22;501;48.214;11.350;2023-05-10T08:02:52;15.30;57.50
1025;DHT22;501;48.214;11.350;2023-05-10T08:05:18;15.30;58.20
1025;DHT22;501;48.214;11.350;2023-05-10T08:07:44;15.40;56.20
1025;DHT22;501;48.214;11.350;2023-05-10T08:10:10;15.40;56.30
1025;DHT22;501;48.214;11.350;2023-05-10T08:12:39;15.40;54.50
1025;DHT22;501;48.214;11.350;2023-05-10T08:15:05;15.40;53.80
1025;DHT22;501;48.214;11.350;2023-05-10T08:17:31;15.30;53.80
1025;DHT22;501;48.214;11.350;2023-05-10T08:19:57;15.30;54.30
1025;DHT22;501;48.214;11.350;2023-05-10T08:22:23;15.20;54.80
1025;DHT22;501;48.214;11.350;2023-05-10T08:24:49;15.20;53.70
1025;DHT22;501;48.214;11.350;2023-05-10T08:27:14;15.20;54.60
1025;DHT22;501;48.214;11.350;2023-05-10T08:29:40;15.10;53.60
1025;DHT22;501;48.214;11.350;2023-05-10T08:32:05;15.20;54.20
1025;DHT22;501;48.214;11.350;2023-05-10T08:34:31;15.20;55.20
1025;DHT22;501;48.214;11.350;2023-05-10T08:36:57;15.30;59.30
1025;DHT22;501;48.214;11.350;2023-05-10T08:39:22;15.40;55.70
1025;DHT22;501;48.214;11.350;2023-05-10T08:41:51;15.50;53.20
1025;DHT22;501;48.214;11.350;2023-05-10T08:44:18;15.70;53.10
1025;DHT22;501;48.214;11.350;2023-05-10T08:46:46;15.80;50.50
1025;DHT22;501;48.214;11.350;2023-05-10T08:49:17;15.90;49.10
1025;DHT22;501;48.214;11.350;2023-05-10T08:51:51;15.80;49.60
1025;DHT22;501;48.214;11.350;2023-05-10T08:54:17;15.80;49.00
1025;DHT22;501;48.214;11.350;2023-05-10T08:56:43;15.80;51.50
1025;DHT22;501;48.214;11.350;2023-05-10T08:59:08;15.80;49.90
1025;DHT22;501;48.214;11.350;2023-05-10T09:01:35;15.90;47.60
1025;DHT22;501;48.214;11.350;2023-05-10T09:04:01;16.00;48.70
1025;DHT22;501;48.214;11.350;2023-05-10T09:06:28;16.00;46.50
1025;DHT22;501;48.214;11.350;2023-05-10T09:08:54;16.00;48.70
1025;DHT22;501;48.214;11.350;2023-05-10T09:11:21;16.00;46.10
1025;DHT22;501;48.214;11.350;2023-05-10T09:13:48;16.10;47.00
1025;DHT22;501;48.214;11.350;2023-05-10T09:16:16;16.10;46.40
1025;DHT22;501;48.214;11.350;2023-05-10T09:18:41;16.20;46.40
1025;DHT22;501;48.214;11.350;2023-05-10T09:21:07;16.30;46.30
1025;DHT22;501;48.214;11.350;2023-05-10T09:23:33;16.40;48.50
1025;DHT22;501;48.214;11.350;2023-05-10T09:26:03;16.60;45.90
1025;DHT22;501;48.214;11.350;2023-05-10T09:28:56;16.70;42.70
1025;DHT22;501;48.214;11.350;2023-05-10T09:31:22;16.70;43.60
1025;DHT22;501;48.214;11.350;2023-05-10T09:33:49;16.80;44.20
1025;DHT22;501;48.214;11.350;2023-05-10T09:36:15;16.80;43.20
1025;DHT22;501;48.214;11.350;2023-05-10T09:38:50;16.80;44.00
1025;DHT22;501;48.214;11.350;2023-05-10T09:41:23;16.80;44.40
1025;DHT22;501;48.214;11.350;2023-05-10T09:43:52;16.80;45.00
1025;DHT22;501;48.214;11.350;2023-05-10T09:46:20;16.80;44.30
1025;DHT22;501;48.214;11.350;2023-05-10T09:48:47;16.80;44.50
1025;DHT22;501;48.214;11.350;2023-05-10T09:51:20;16.80;44.00
1025;DHT22;501;48.214;11.350;2023-05-10T09:53:46;16.80;43.10
1025;DHT22;501;48.214;11.350;2023-05-10T09:56:11;16.90;45.30
1025;DHT22;501;48.214;11.350;2023-05-10T09:58:39;16.90;45.60
1025;DHT22;501;48.214;11.350;2023-05-10T10:01:05;17.00;48.20
1025;DHT22;501;48.214;11.350;2023-05-10T10:03:41;17.20;44.70
1025;DHT22;501;48.214;11.350;2023-05-10T10:06:07;17.30;42.70
1025;DHT22;501;48.214;11.350;2023-05-10T10:08:34;17.40;42.70
1025;DHT22;501;48.214;11.350;2023-05-10T10:11:00;17.50;42.70
1025;DHT22;501;48.214;11.350;2023-05-10T10:13:26;17.40;41.80
1025;DHT22;501;48.214;11.350;2023-05-10T10:15:54;17.30;41.30
1025;DHT22;501;48.214;11.350;2023-05-10T10:18:20;17.30;41.90
1025;DHT22;501;48.214;11.350;2023-05-10T10:20:53;17.20;42.20
1025;DHT22;501;48.214;11.350;2023-05-10T10:23:19;17.20;42.00
1025;DHT22;501;48.214;11.350;2023-05-10T10:25:45;17.10;37.70
1025;DHT22;501;48.214;11.350;2023-05-10T10:28:25;17.00;38.00
1025;DHT22;501;48.214;11.350;2023-05-10T10:30:52;16.90;38.10
1025;DHT22;501;48.214;11.350;2023-05-10T10:36:12;16.70;39.10
1025;DHT22;501;48.214;11.350;2023-05-10T10:38:55;16.60;39.90
1025;DHT22;501;48.214;11.350;2023-05-10T10:47:03;16.50;42.40
1025;DHT22;501;48.214;11.350;2023-05-10T10:49:32;16.40;41.50
1025;DHT22;501;48.214;11.350;2023-05-10T10:52:15;16.40;43.20
1025;DHT22;501;48.214;11.350;2023-05-10T10:54:44;16.20;41.30
1025;DHT22;501;48.214;11.350;2023-05-10T10:57:13;16.00;42.20
1025;DHT22;501;48.214;11.350;2023-05-10T10:59:45;15.70;44.10
1025;DHT22;501;48.214;11.350;2023-05-10T11:02:42;15.50;46.80
1025;DHT22;501;48.214;11.350;2023-05-10T11:08:27;15.10;53.00
1025;DHT22;501;48.214;11.350;2023-05-10T11:13:32;14.80;58.10
1025;DHT22;501;48.214;11.350;2023-05-10T11:15:58;14.70;61.30
1025;DHT22;501;48.214;11.350;2023-05-10T11:18:29;14.60;61.70
1025;DHT22;501;48.214;11.350;2023-05-10T11:21:00;14.50;61.70
1025;DHT22;501;48.214;11.350;2023-05-10T11:23:32;14.50;58.90
1025;DHT22;501;48.214;11.350;2023-05-10T11:26:00;14.50;60.00
1025;DHT22;501;48.214;11.350;2023-05-10T11:28:27;14.40;60.40
1025;DHT22;501;48.214;11.350;2023-05-10T11:30:53;14.50;59.40
1025;DHT22;501;48.214;11.350;2023-05-10T11:33:19;14.50;58.50
1025;DHT22;501;48.214;11.350;2023-05-10T11:35:46;14.50;63.10
1025;DHT22;501;48.214;11.350;2023-05-10T11:38:13;14.50;64.90
1025;DHT22;501;48.214;11.350;2023-05-10T11:40:41;14.50;65.80
1025;DHT22;501;48.214;11.350;2023-05-10T11:43:09;14.60;66.40
1025;DHT22;501;48.214;11.350;2023-05-10T11:45:35;14.60;67.60
1025;DHT22;501;48.214;11.350;2023-05-10T11:48:02;14.70;69.90
1025;DHT22;501;48.214;11.350;2023-05-10T11:50:28;14.70;68.30
1025;DHT22;501;48.214;11.350;2023-05-10T11:52:55;14.70;66.40
1025;DHT22;501;48.214;11.350;2023-05-10T11:55:22;14.70;67.90
1025;DHT22;501;48.214;11.350;2023-05-10T11:57:52;14.80;65.10
1025;DHT22;501;48.214;11.350;2023-05-10T12:00:18;14.80;67.30
1025;DHT22;501;48.214;11.350;2023-05-10T12:02:43;14.80;68.10
1025;DHT22;501;48.214;11.350;2023-05-10T12:05:10;14.90;65.10
1025;DHT22;501;48.214;11.350;2023-05-10T12:07:35;14.90;66.70
1025;DHT22;501;48.214;11.350;2023-05-10T12:10:12;14.90;65.70
1025;DHT22;501;48.214;11.350;2023-05-10T12:12:46;14.90;64.10
1025;DHT22;501;48.214;11.350;2023-05-10T12:15:22;14.90;64.90
1025;DHT22;501;48.214;11.350;2023-05-10T12:17:47;14.90;58.80
1025;DHT22;501;48.214;11.350;2023-05-10T12:20:21;14.80;52.80
1025;DHT22;501;48.214;11.350;2023-05-10T12:22:52;14.60;55.20
1025;DHT22;501;48.214;11.350;2023-05-10T12:25:19;14.60;56.50
1025;DHT22;501;48.214;11.350;2023-05-10T12:27:57;14.60;55.40
1025;DHT22;501;48.214;11.350;2023-05-10T12:30:25;14.60;55.30
1025;DHT22;501;48.214;11.350;2023-05-10T12:32:51;14.50;54.20
1025;DHT22;501;48.214;11.350;2023-05-10T12:35:17;14.50;55.90
1025;DHT22;501;48.214;11.350;2023-05-10T12:37:47;14.50;56.50
1025;DHT22;501;48.214;11.350;2023-05-10T12:40:13;14.60;60.00
1025;DHT22;501;48.214;11.350;2023-05-10T12:42:40;14.70;63.30
1025;DHT22;501;48.214;11.350;2023-05-10T12:45:06;14.70;67.20
1025;DHT22;501;48.214;11.350;2023-05-10T12:47:33;14.80;63.00
1025;DHT22;501;48.214;11.350;2023-05-10T12:50:00;14.90;60.40
1025;DHT22;501;48.214;11.350;2023-05-10T12:52:26;14.90;62.00
1025;DHT22;501;48.214;11.350;2023-05-10T12:54:52;15.00;60.10
1025;DHT22;501;48.214;11.350;2023-05-10T12:57:19;15.10;58.90
1025;DHT22;501;48.214;11.350;2023-05-10T12:59:45;15.10;59.20
1025;DHT22;501;48.214;11.350;2023-05-10T13:02:11;15.10;62.20
1025;DHT22;501;48.214;11.350;2023-05-10T13:04:36;15.10;62.20
1025;DHT22;501;48.214;11.350;2023-05-10T13:07:06;15.20;61.80
1025;DHT22;501;48.214;11.350;2023-05-10T13:09:32;15.10;60.30
1025;DHT22;501;48.214;11.350;2023-05-10T13:11:58;15.00;60.90
1025;DHT22;501;48.214;11.350;2023-05-10T13:14:25;15.00;60.80
1025;DHT22;501;48.214;11.350;2023-05-10T13:16:50;15.00;58.60
1025;DHT22;501;48.214;11.350;2023-05-10T13:19:16;14.90;59.10
1025;DHT22;501;48.214;11.350;2023-05-10T13:21:43;14.90;62.00
1025;DHT22;501;48.214;11.350;2023-05-10T13:24:10;15.00;65.40
1025;DHT22;501;48.214;11.350;2023-05-10T13:26:36;15.00;64.80
1025;DHT22;501;48.214;11.350;2023-05-10T13:29:02;15.10;62.30
1025;DHT22;501;48.214;11.350;2023-05-10T13:31:28;15.10;61.10
1025;DHT22;501;48.214;11.350;2023-05-10T13:33:53;15.10;62.30
1025;DHT22;501;48.214;11.350;2023-05-10T13:36:19;15.10;62.30
1025;DHT22;501;48.214;11.350;2023-05-10T13:38:45;15.20;63.50
1025;DHT22;501;48.214;11.350;2023-05-10T13:41:10;15.20;63.10
1025;DHT22;501;48.214;11.350;2023-05-10T13:43:36;15.20;63.70
1025;DHT22;501;48.214;11.350;2023-05-10T13:46:02;15.20;64.30
1025;DHT22;501;48.214;11.350;2023-05-10T13:48:28;15.20;64.60
1025;DHT22;501;48.214;11.350;2023-05-10T13:50:53;15.20;67.00
1025;DHT22;501;48.214;11.350;2023-05-10T13:53:19;15.30;66.30
1025;DHT22;501;48.214;11.350;2023-05-10T13:55:45;15.30;63.70
1025;DHT22;501;48.214;11.350;2023-05-10T13:58:10;15.20;65.20
1025;DHT22;501;48.214;11.350;2023-05-10T14:00:36;15.30;67.00
1025;DHT22;501;48.214;11.350;2023-05-10T14:03:02;15.20;61.40
1025;DHT22;501;48.214;11.350;2023-05-10T14:05:27;15.00;62.20
1025;DHT22;501;48.214;11.350;2023-05-10T14:07:53;15.00;65.50
1025;DHT22;501;48.214;11.350;2023-05-10T14:10:19;14.90;64.10
1025;DHT22;501;48.214;11.350;2023-05-10T14:12:45;14.90;64.10
1025;DHT22;501;48.214;11.350;2023-05-10T14:15:11;14.80;61.90
1025;DHT22;501;48.214;11.350;2023-05-10T14:17:37;14.80;62.20
1025;DHT22;501;48.214;11.350;2023-05-10T14:20:03;14.60;63.60
1025;DHT22;501;48.214;11.350;2023-05-10T14:22:29;14.60;65.50
1025;DHT22;501;48.214;11.350;2023-05-10T14:24:54;14.50;61.20
1025;DHT22;501;48.214;11.350;2023-05-10T14:27:20;14.40;64.70
1025;DHT22;501;48.214;11.350;2023-05-10T14:29:47;14.30;66.00
1025;DHT22;501;48.214;11.350;2023-05-10T14:32:13;14.30;67.10
1025;DHT22;501;48.214;11.350;2023-05-10T14:34:38;14.30;68.30
1025;DHT22;501;48.214;11.350;2023-05-10T14:37:04;14.20;67.30
1025;DHT22;501;48.214;11.350;2023-05-10T14:39:30;14.20;66.00
1025;DHT22;501;48.214;11.350;2023-05-10T14:41:56;14.10;66.60
1025;DHT22;501;48.214;11.350;2023-05-10T14:44:21;14.10;69.90
1025;DHT22;501;48.214;11.350;2023-05-10T14:46:47;14.10;69.90
1025;DHT22;501;48.214;11.350;2023-05-10T14:49:14;14.10;69.50
1025;DHT22;501;48.214;11.350;2023-05-10T14:51:39;14.00;70.80
1025;DHT22;501;48.214;11.350;2023-05-10T14:54:05;14.00;74.10
1025;DHT22;501;48.214;11.350;2023-05-10T14:56:31;14.00;74.00
1025;DHT22;501;48.214;11.350;2023-05-10T14:58:57;14.00;72.70
1025;DHT22;501;48.214;11.350;2023-05-10T15:01:23;14.00;72.70
1025;DHT22;501;48.214;11.350;2023-05-10T15:03:48;14.00;70.10
1025;DHT22;501;48.214;11.350;2023-05-10T15:06:15;14.00;74.40
1025;DHT22;501;48.214;11.350;2023-05-10T15:08:43;14.00;73.80
1025;DHT22;501;48.214;11.350;2023-05-10T15:11:08;14.10;71.70
1025;DHT22;501;48.214;11.350;2023-05-10T15:13:34;14.10;73.50
1025;DHT22;501;48.214;11.350;2023-05-10T15:16:00;14.20;75.20
1025;DHT22;501;48.214;11.350;2023-05-10T15:18:25;14.20;72.30
1025;DHT22;501;48.214;11.350;2023-05-10T15:20:51;14.20;72.00
1025;DHT22;501;48.214;11.350;2023-05-10T15:23:17;14.30;74.00
1025;DHT22;501;48.214;11.350;2023-05-10T15:25:42;14.30;73.10
1025;DHT22;501;48.214;11.350;2023-05-10T15:28:08;14.40;71.30
1025;DHT22;501;48.214;11.350;2023-05-10T15:30:34;14.30;66.30
1025;DHT22;501;48.214;11.350;2023-05-10T15:32:59;14.30;63.50
1025;DHT22;501;48.214;11.350;2023-05-10T15:35:26;14.20;66.50
1025;DHT22;501;48.214;11.350;2023-05-10T15:37:52;14.20;66.20
1025;DHT22;501;48.214;11.350;2023-05-10T15:40:17;14.10;64.80
1025;DHT22;501;48.214;11.350;2023-05-10T15:42:43;14.10;65.80
1025;DHT22;501;48.214;11.350;2023-05-10T15:45:09;14.10;67.70
1025;DHT22;501;48.214;11.350;2023-05-10T15:47:36;14.10;66.10
1025;DHT22;501;48.214;11.350;2023-05-10T15:50:24;14.10;65.20
1025;DHT22;501;48.214;11.350;2023-05-10T15:52:50;14.10;64.90
1025;DHT22;501;48.214;11.350;2023-05-10T15:55:16;14.10;66.70
1025;DHT22;501;48.214;11.350;2023-05-10T15:57:43;14.00;64.90
1025;DHT22;501;48.214;11.350;2023-05-10T16:00:09;14.00;64.00
1025;DHT22;501;48.214;11.350;2023-05-10T16:02:35;14.00;65.70
1025;DHT22;501;48.214;11.350;2023-05-10T16:05:02;13.90;64.20
1025;DHT22;501;48.214;11.350;2023-05-10T16:07:28;13.80;62.60
1025;DHT22;501;48.214;11.350;2023-05-10T16:09:53;13.80;65.30
1025;DHT22;501;48.214;11.350;2023-05-10T16:12:22;13.80;66.70
1025;DHT22;501;48.214;11.350;2023-05-10T16:14:51;13.80;65.70
1025;DHT22;501;48.214;11.350;2023-05-10T16:17:16;13.70;68.60
1025;DHT22;501;48.214;11.350;2023-05-10T16:19:43;13.70;68.30
1025;DHT22;501;48.214;11.350;2023-05-10T16:22:09;13.80;68.20
1025;DHT22;501;48.214;11.350;2023-05-10T16:24:34;13.70;68.60
1025;DHT22;501;48.214;11.350;2023-05-10T16:27:00;13.70;68.90